sensor_id;sensor_type;location;lat;lon;timestamp;temperature;humidity
72591;SHT31;60625;51.212;5.952;2023-11-22T00:04:51;5.99;87.35
72591;SHT31;60625;51.212;5.952;2023-11-22T00:09:51;5.89;87.32
72591;SHT31;60625;51.212;5.952;2023-11-22T00:14:53;5.75;87.44
72591;SHT31;60625;51.212;5.952;2023-11-22T00:19:54;5.66;87.60
72591;SHT31;60625;51.212;5.952;2023-11-22T00:24:54;5.58;87.64
72591;SHT31;60625;51.212;5.952;2023-11-22T00:29:55;5.50;87.64
72591;SHT31;60625;51.212;5.952;2023-11-22T00:34:57;5.43;87.68
72591;SHT31;60625;51.212;5.952;2023-11-22T00:39:57;5.37;87.72
72591;SHT31;60625;51.212;5.952;2023-11-22T00:45:00;5.30;87.84
72591;SHT31;60625;51.212;5.952;2023-11-22T00:50:01;5.24;87.83
72591;SHT31;60625;51.212;5.952;2023-11-22T00:55:04;5.18;87.97
72591;SHT31;60625;51.212;5.952;2023-11-22T01:00:05;5.11;87.93
72591;SHT31;60625;51.212;5.952;2023-11-22T01:05:10;5.06;88.00
72591;SHT31;60625;51.212;5.952;2023-11-22T01:10:11;5.03;88.07
72591;SHT31;60625;51.212;5.952;2023-11-22T01:15:12;4.99;88.04
72591;SHT31;60625;51.212;5.952;2023-11-22T01:20:20;4.92;88.05
72591;SHT31;60625;51.212;5.952;2023-11-22T01:25:23;4.83;88.01
72591;SHT31;60625;51.212;5.952;2023-11-22T01:30:23;4.75;88.22
72591;SHT31;60625;51.212;5.952;2023-11-22T01:35:24;4.72;88.39
72591;SHT31;60625;51.212;5.952;2023-11-22T01:40:25;4.66;88.44
72591;SHT31;60625;51.212;5.952;2023-11-22T01:45:26;4.61;88.46
72591;SHT31;60625;51.212;5.952;2023-11-22T01:50:27;4.54;88.54
72591;SHT31;60625;51.212;5.952;2023-11-22T01:55:27;4.47;88.73
72591;SHT31;60625;51.212;5.952;2023-11-22T02:00:28;4.41;88.88
72591;SHT31;60625;51.212;5.952;2023-11-22T02:05:35;4.40;89.06
72591;SHT31;60625;51.212;5.952;2023-11-22T02:10:42;4.39;89.25
72591;SHT31;60625;51.212;5.952;2023-11-22T02:15:44;4.39;89.49
72591;SHT31;60625;51.212;5.952;2023-11-22T02:20:46;4.42;89.64
72591;SHT31;60625;51.212;5.952;2023-11-22T02:25:47;4.46;89.71
72591;SHT31;60625;51.212;5.952;2023-11-22T02:30:48;4.50;89.79
72591;SHT31;60625;51.212;5.952;2023-11-22T02:35:49;4.51;89.86
72591;SHT31;60625;51.212;5.952;2023-11-22T02:40:50;4.52;89.90
72591;SHT31;60625;51.212;5.952;2023-11-22T02:45:50;4.54;89.96
72591;SHT31;60625;51.212;5.952;2023-11-22T02:50:51;4.54;89.96
72591;SHT31;60625;51.212;5.952;2023-11-22T02:55:54;4.56;90.00
72591;SHT31;60625;51.212;5.952;2023-11-22T03:00:56;4.55;90.00
72591;SHT31;60625;51.212;5.952;2023-11-22T03:05:58;4.55;90.00
72591;SHT31;60625;51.212;5.952;2023-11-22T03:10:59;4.54;90.10
72591;SHT31;60625;51.212;5.952;2023-11-22T03:15:59;4.53;90.18
72591;SHT31;60625;51.212;5.952;2023-11-22T03:21:01;4.52;90.12
72591;SHT31;60625;51.212;5.952;2023-11-22T03:26:01;4.51;90.21
72591;SHT31;60625;51.212;5.952;2023-11-22T03:31:03;4.45;90.11
72591;SHT31;60625;51.212;5.952;2023-11-22T03:36:06;4.41;90.12
72591;SHT31;60625;51.212;5.952;2023-11-22T03:41:07;4.40;90.11
72591;SHT31;60625;51.212;5.952;2023-11-22T03:46:07;4.37;90.10
72591;SHT31;60625;51.212;5.952;2023-11-22T03:51:08;4.37;90.19
72591;SHT31;60625;51.212;5.952;2023-11-22T03:56:08;4.37;90.23
72591;SHT31;60625;51.212;5.952;2023-11-22T04:01:09;4.40;90.35
72591;SHT31;60625;51.212;5.952;2023-11-22T04:06:10;4.41;90.42
72591;SHT31;60625;51.212;5.952;2023-11-22T04:11:10;4.44;90.47
72591;SHT31;60625;51.212;5.952;2023-11-22T04:16:15;4.44;90.53
72591;SHT31;60625;51.212;5.952;2023-11-22T04:21:17;4.47;90.60
72591;SHT31;60625;51.212;5.952;2023-11-22T04:26:17;4.50;90.60
72591;SHT31;60625;51.212;5.952;2023-11-22T04:31:20;4.51;90.60
72591;SHT31;60625;51.212;5.952;2023-11-22T04:36:21;4.54;90.60
72591;SHT31;60625;51.212;5.952;2023-11-22T04:41:21;4.58;90.59
72591;SHT31;60625;51.212;5.952;2023-11-22T04:46:22;4.59;90.52
72591;SHT31;60625;51.212;5.952;2023-11-22T04:51:23;4.61;90.54
72591;SHT31;60625;51.212;5.952;2023-11-22T04:56:24;4.62;90.53
72591;SHT31;60625;51.212;5.952;2023-11-22T05:01:24;4.62;90.50
72591;SHT31;60625;51.212;5.952;2023-11-22T05:06:33;4.63;90.51
72591;SHT31;60625;51.212;5.952;2023-11-22T05:11:33;4.64;90.51
72591;SHT31;60625;51.212;5.952;2023-11-22T05:16:34;4.67;90.58
72591;SHT31;60625;51.212;5.952;2023-11-22T05:21:34;4.69;90.50
72591;SHT31;60625;51.212;5.952;2023-11-22T05:26:35;4.73;90.50
72591;SHT31;60625;51.212;5.952;2023-11-22T05:31:35;4.72;90.25
72591;SHT31;60625;51.212;5.952;2023-11-22T05:36:37;4.71;90.28
72591;SHT31;60625;51.212;5.952;2023-11-22T05:41:38;4.72;90.15
72591;SHT31;60625;51.212;5.952;2023-11-22T05:46:38;4.68;89.87
72591;SHT31;60625;51.212;5.952;2023-11-22T05:51:39;4.61;89.61
72591;SHT31;60625;51.212;5.952;2023-11-22T05:56:39;4.55;89.51
72591;SHT31;60625;51.212;5.952;2023-11-22T06:01:40;4.53;89.54
72591;SHT31;60625;51.212;5.952;2023-11-22T06:06:41;4.53;89.53
72591;SHT31;60625;51.212;5.952;2023-11-22T06:11:41;4.53;89.50
72591;SHT31;60625;51.212;5.952;2023-11-22T06:16:42;4.50;89.46
72591;SHT31;60625;51.212;5.952;2023-11-22T06:21:42;4.49;89.50
72591;SHT31;60625;51.212;5.952;2023-11-22T06:26:43;4.46;89.53
72591;SHT31;60625;51.212;5.952;2023-11-22T06:31:46;4.42;89.50
72591;SHT31;60625;51.212;5.952;2023-11-22T06:36:47;4.42;89.53
72591;SHT31;60625;51.212;5.952;2023-11-22T06:41:48;4.43;89.50
72591;SHT31;60625;51.212;5.952;2023-11-22T06:46:48;4.42;89.49
72591;SHT31;60625;51.212;5.952;2023-11-22T06:51:49;4.40;89.47
72591;SHT31;60625;51.212;5.952;2023-11-22T06:56:49;4.37;89.44
72591;SHT31;60625;51.212;5.952;2023-11-22T07:01:51;4.37;89.55
72591;SHT31;60625;51.212;5.952;2023-11-22T07:06:52;4.36;89.63
72591;SHT31;60625;51.212;5.952;2023-11-22T07:11:52;4.34;89.66
72591;SHT31;60625;51.212;5.952;2023-11-22T07:16:53;4.30;89.65
72591;SHT31;60625;51.212;5.952;2023-11-22T07:21:53;4.29;89.74
72591;SHT31;60625;51.212;5.952;2023-11-22T07:26:55;4.29;89.71
72591;SHT31;60625;51.212;5.952;2023-11-22T07:31:55;4.30;89.74
72591;SHT31;60625;51.212;5.952;2023-11-22T07:36:59;4.31;89.67
72591;SHT31;60625;51.212;5.952;2023-11-22T07:42:00;4.33;89.64
72591;SHT31;60625;51.212;5.952;2023-11-22T07:47:04;4.34;89.68
72591;SHT31;60625;51.212;5.952;2023-11-22T07:52:09;4.36;89.69
72591;SHT31;60625;51.212;5.952;2023-11-22T07:57:14;4.39;89.92
72591;SHT31;60625;51.212;5.952;2023-11-22T08:02:14;4.45;89.92
72591;SHT31;60625;51.212;5.952;2023-11-22T08:07:19;4.50;89.86
72591;SHT31;60625;51.212;5.952;2023-11-22T08:12:22;4.55;89.64
72591;SHT31;60625;51.212;5.952;2023-11-22T08:17:23;4.59;89.45
72591;SHT31;60625;51.212;5.952;2023-11-22T08:22:24;4.60;89.20
72591;SHT31;60625;51.212;5.952;2023-11-22T08:27:27;4.62;88.95
72591;SHT31;60625;51.212;5.952;2023-11-22T08:32:28;4.64;88.57
72591;SHT31;60625;51.212;5.952;2023-11-22T08:37:32;4.67;88.27
72591;SHT31;60625;51.212;5.952;2023-11-22T08:42:35;4.74;88.22
72591;SHT31;60625;51.212;5.952;2023-11-22T08:47:41;4.85;88.05
72591;SHT31;60625;51.212;5.952;2023-11-22T08:52:43;4.96;87.83
72591;SHT31;60625;51.212;5.952;2023-11-22T08:57:45;5.07;87.64
72591;SHT31;60625;51.212;5.952;2023-11-22T09:02:45;5.11;87.30
72591;SHT31;60625;51.212;5.952;2023-11-22T09:07:46;5.12;87.18
72591;SHT31;60625;51.212;5.952;2023-11-22T09:12:47;5.11;86.96
72591;SHT31;60625;51.212;5.952;2023-11-22T09:17:52;5.10;86.95
72591;SHT31;60625;51.212;5.952;2023-11-22T09:22:54;5.16;86.81
72591;SHT31;60625;51.212;5.952;2023-11-22T09:27:55;5.22;86.66
72591;SHT31;60625;51.212;5.952;2023-11-22T09:32:59;5.27;86.29
72591;SHT31;60625;51.212;5.952;2023-11-22T09:38:05;5.26;85.98
72591;SHT31;60625;51.212;5.952;2023-11-22T09:43:17;5.30;85.90
72591;SHT31;60625;51.212;5.952;2023-11-22T09:48:20;5.39;85.82
72591;SHT31;60625;51.212;5.952;2023-11-22T09:58:38;5.57;85.57
72591;SHT31;60625;51.212;5.952;2023-11-22T10:03:44;5.58;85.57
72591;SHT31;60625;51.212;5.952;2023-11-22T10:08:46;5.57;85.39
72591;SHT31;60625;51.212;5.952;2023-11-22T10:13:51;5.55;85.21
72591;SHT31;60625;51.212;5.952;2023-11-22T10:18:55;5.60;85.09
72591;SHT31;60625;51.212;5.952;2023-11-22T10:24:02;5.66;84.88
72591;SHT31;60625;51.212;5.952;2023-11-22T10:29:04;5.75;84.75
72591;SHT31;60625;51.212;5.952;2023-11-22T10:34:04;5.84;84.76
72591;SHT31;60625;51.212;5.952;2023-11-22T10:39:07;5.96;84.67
72591;SHT31;60625;51.212;5.952;2023-11-22T10:44:10;6.05;84.32
72591;SHT31;60625;51.212;5.952;2023-11-22T10:49:10;6.20;84.42
72591;SHT31;60625;51.212;5.952;2023-11-22T10:54:11;6.38;84.07
72591;SHT31;60625;51.212;5.952;2023-11-22T10:59:15;6.56;84.10
72591;SHT31;60625;51.212;5.952;2023-11-22T11:04:24;6.68;83.62
72591;SHT31;60625;51.212;5.952;2023-11-22T11:09:36;6.78;83.13
72591;SHT31;60625;51.212;5.952;2023-11-22T11:14:37;7.02;82.57
72591;SHT31;60625;51.212;5.952;2023-11-22T11:19:39;7.25;81.89
72591;SHT31;60625;51.212;5.952;2023-11-22T11:24:40;7.47;81.36
72591;SHT31;60625;51.212;5.952;2023-11-22T11:29:44;7.64;80.22
72591;SHT31;60625;51.212;5.952;2023-11-22T11:34:48;7.74;79.96
72591;SHT31;60625;51.212;5.952;2023-11-22T11:39:50;7.80;80.04
72591;SHT31;60625;51.212;5.952;2023-11-22T11:49:57;7.82;79.30
72591;SHT31;60625;51.212;5.952;2023-11-22T11:54:58;7.79;79.21
72591;SHT31;60625;51.212;5.952;2023-11-22T11:59:58;7.82;79.17
72591;SHT31;60625;51.212;5.952;2023-11-22T12:04:59;7.86;78.96
72591;SHT31;60625;51.212;5.952;2023-11-22T12:10:01;7.95;78.95
72591;SHT31;60625;51.212;5.952;2023-11-22T12:15:07;8.04;78.99
72591;SHT31;60625;51.212;5.952;2023-11-22T12:20:11;8.05;78.93
72591;SHT31;60625;51.212;5.952;2023-11-22T12:25:17;8.01;78.83
72591;SHT31;60625;51.212;5.952;2023-11-22T12:30:35;7.94;78.86
72591;SHT31;60625;51.212;5.952;2023-11-22T12:35:39;7.90;77.92
72591;SHT31;60625;51.212;5.952;2023-11-22T12:40:45;7.91;77.86
72591;SHT31;60625;51.212;5.952;2023-11-22T12:45:57;7.95;77.36
72591;SHT31;60625;51.212;5.952;2023-11-22T12:51:03;8.01;77.28
72591;SHT31;60625;51.212;5.952;2023-11-22T12:56:18;8.15;77.26
72591;SHT31;60625;51.212;5.952;2023-11-22T13:01:19;8.23;75.68
72591;SHT31;60625;51.212;5.952;2023-11-22T13:06:20;8.25;75.49
72591;SHT31;60625;51.212;5.952;2023-11-22T13:11:25;8.27;75.54
72591;SHT31;60625;51.212;5.952;2023-11-22T13:16:26;8.26;75.71
72591;SHT31;60625;51.212;5.952;2023-11-22T13:21:27;8.24;76.22
72591;SHT31;60625;51.212;5.952;2023-11-22T13:26:27;8.29;76.40
72591;SHT31;60625;51.212;5.952;2023-11-22T13:31:28;8.40;76.42
72591;SHT31;60625;51.212;5.952;2023-11-22T13:36:30;8.51;75.79
72591;SHT31;60625;51.212;5.952;2023-11-22T13:41:32;8.53;75.40
72591;SHT31;60625;51.212;5.952;2023-11-22T13:46:33;8.50;75.28
72591;SHT31;60625;51.212;5.952;2023-11-22T13:51:34;8.43;74.71
72591;SHT31;60625;51.212;5.952;2023-11-22T13:56:35;8.39;74.96
72591;SHT31;60625;51.212;5.952;2023-11-22T14:01:35;8.32;75.09
72591;SHT31;60625;51.212;5.952;2023-11-22T14:06:36;8.32;75.46
72591;SHT31;60625;51.212;5.952;2023-11-22T14:11:37;8.32;75.41
72591;SHT31;60625;51.212;5.952;2023-11-22T14:16:37;8.23;75.48
72591;SHT31;60625;51.212;5.952;2023-11-22T14:21:41;8.15;75.50
72591;SHT31;60625;51.212;5.952;2023-11-22T14:26:51;8.04;75.74
72591;SHT31;60625;51.212;5.952;2023-11-22T14:32:10;7.93;76.21
72591;SHT31;60625;51.212;5.952;2023-11-22T14:37:11;7.91;76.54
72591;SHT31;60625;51.212;5.952;2023-11-22T14:42:12;7.87;76.51
72591;SHT31;60625;51.212;5.952;2023-11-22T14:47:13;7.83;76.87
72591;SHT31;60625;51.212;5.952;2023-11-22T14:52:19;7.81;77.01
72591;SHT31;60625;51.212;5.952;2023-11-22T14:57:21;7.78;76.99
72591;SHT31;60625;51.212;5.952;2023-11-22T15:02:22;7.76;77.00
72591;SHT31;60625;51.212;5.952;2023-11-22T15:07:23;7.70;76.87
72591;SHT31;60625;51.212;5.952;2023-11-22T15:12:23;7.63;76.88
72591;SHT31;60625;51.212;5.952;2023-11-22T15:17:25;7.58;77.18
72591;SHT31;60625;51.212;5.952;2023-11-22T15:22:25;7.54;77.38
72591;SHT31;60625;51.212;5.952;2023-11-22T15:27:26;7.51;77.69
72591;SHT31;60625;51.212;5.952;2023-11-22T15:32:26;7.52;78.03
72591;SHT31;60625;51.212;5.952;2023-11-22T15:37:28;7.50;78.08
72591;SHT31;60625;51.212;5.952;2023-11-22T15:42:29;7.48;78.19
72591;SHT31;60625;51.212;5.952;2023-11-22T15:47:30;7.40;78.14
72591;SHT31;60625;51.212;5.952;2023-11-22T15:52:30;7.34;78.13
72591;SHT31;60625;51.212;5.952;2023-11-22T15:57:31;7.30;78.26
72591;SHT31;60625;51.212;5.952;2023-11-22T16:02:31;7.26;78.26
72591;SHT31;60625;51.212;5.952;2023-11-22T16:07:32;7.21;78.46
72591;SHT31;60625;51.212;5.952;2023-11-22T16:12:32;7.19;78.68
72591;SHT31;60625;51.212;5.952;2023-11-22T16:17:33;7.17;78.86
72591;SHT31;60625;51.212;5.952;2023-11-22T16:22:36;7.13;79.00
72591;SHT31;60625;51.212;5.952;2023-11-22T16:27:44;7.11;79.34
72591;SHT31;60625;51.212;5.952;2023-11-22T16:32:45;7.06;79.35
72591;SHT31;60625;51.212;5.952;2023-11-22T16:37:46;6.99;79.54
72591;SHT31;60625;51.212;5.952;2023-11-22T16:42:46;6.92;79.69
72591;SHT31;60625;51.212;5.952;2023-11-22T16:47:47;6.86;79.72
72591;SHT31;60625;51.212;5.952;2023-11-22T16:52:47;6.79;79.83
72591;SHT31;60625;51.212;5.952;2023-11-22T16:57:48;6.74;79.88
72591;SHT31;60625;51.212;5.952;2023-11-22T17:02:49;6.72;80.02
72591;SHT31;60625;51.212;5.952;2023-11-22T17:07:49;6.71;80.18
72591;SHT31;60625;51.212;5.952;2023-11-22T17:12:50;6.72;80.38
72591;SHT31;60625;51.212;5.952;2023-11-22T17:17:51;6.73;80.62
72591;SHT31;60625;51.212;5.952;2023-11-22T17:22:51;6.73;80.35
72591;SHT31;60625;51.212;5.952;2023-11-22T17:27:52;6.69;80.04
72591;SHT31;60625;51.212;5.952;2023-11-22T17:32:52;6.68;80.19
72591;SHT31;60625;51.212;5.952;2023-11-22T17:37:53;6.64;80.02
72591;SHT31;60625;51.212;5.952;2023-11-22T17:42:57;6.59;80.04
72591;SHT31;60625;51.212;5.952;2023-11-22T17:48:01;6.54;80.01
72591;SHT31;60625;51.212;5.952;2023-11-22T17:53:01;6.47;79.90
72591;SHT31;60625;51.212;5.952;2023-11-22T17:58:02;6.41;80.07
72591;SHT31;60625;51.212;5.952;2023-11-22T18:03:02;6.39;80.21
72591;SHT31;60625;51.212;5.952;2023-11-22T18:08:04;6.37;80.36
72591;SHT31;60625;51.212;5.952;2023-11-22T18:13:05;6.39;80.60
72591;SHT31;60625;51.212;5.952;2023-11-22T18:18:08;6.39;80.87
72591;SHT31;60625;51.212;5.952;2023-11-22T18:23:09;6.40;81.01
72591;SHT31;60625;51.212;5.952;2023-11-22T18:28:10;6.38;81.04
72591;SHT31;60625;51.212;5.952;2023-11-22T18:33:12;6.38;81.12
72591;SHT31;60625;51.212;5.952;2023-11-22T18:38:12;6.38;81.26
72591;SHT31;60625;51.212;5.952;2023-11-22T18:43:14;6.37;81.36
72591;SHT31;60625;51.212;5.952;2023-11-22T18:48:14;6.39;81.21
72591;SHT31;60625;51.212;5.952;2023-11-22T18:53:16;6.36;81.43
72591;SHT31;60625;51.212;5.952;2023-11-22T18:58:17;6.34;81.46
72591;SHT31;60625;51.212;5.952;2023-11-22T19:03:17;6.31;81.38
72591;SHT31;60625;51.212;5.952;2023-11-22T19:08:18;6.28;81.50
72591;SHT31;60625;51.212;5.952;2023-11-22T19:13:19;6.26;81.61
72591;SHT31;60625;51.212;5.952;2023-11-22T19:18:21;6.22;81.55
72591;SHT31;60625;51.212;5.952;2023-11-22T19:23:22;6.20;81.68
72591;SHT31;60625;51.212;5.952;2023-11-22T19:28:23;6.17;81.84
72591;SHT31;60625;51.212;5.952;2023-11-22T19:33:24;6.16;81.94
72591;SHT31;60625;51.212;5.952;2023-11-22T19:38:24;6.16;82.06
72591;SHT31;60625;51.212;5.952;2023-11-22T19:43:28;6.18;82.11
72591;SHT31;60625;51.212;5.952;2023-11-22T19:48:29;6.19;82.30
72591;SHT31;60625;51.212;5.952;2023-11-22T19:53:30;6.20;82.49
72591;SHT31;60625;51.212;5.952;2023-11-22T19:58:34;6.21;82.58
72591;SHT31;60625;51.212;5.952;2023-11-22T20:03:34;6.20;82.62
72591;SHT31;60625;51.212;5.952;2023-11-22T20:08:35;6.21;82.53
72591;SHT31;60625;51.212;5.952;2023-11-22T20:13:36;6.22;82.45
72591;SHT31;60625;51.212;5.952;2023-11-22T20:18:36;6.22;82.33
72591;SHT31;60625;51.212;5.952;2023-11-22T20:23:37;6.21;82.31
72591;SHT31;60625;51.212;5.952;2023-11-22T20:28:37;6.19;82.30
72591;SHT31;60625;51.212;5.952;2023-11-22T20:33:39;6.16;82.11
72591;SHT31;60625;51.212;5.952;2023-11-22T20:38:40;6.12;81.99
72591;SHT31;60625;51.212;5.952;2023-11-22T20:43:49;6.10;82.01
72591;SHT31;60625;51.212;5.952;2023-11-22T20:48:49;6.07;82.10
72591;SHT31;60625;51.212;5.952;2023-11-22T20:53:50;6.05;82.16
72591;SHT31;60625;51.212;5.952;2023-11-22T20:58:51;6.01;82.06
72591;SHT31;60625;51.212;5.952;2023-11-22T21:03:51;5.99;81.89
72591;SHT31;60625;51.212;5.952;2023-11-22T21:08:52;5.99;81.72
72591;SHT31;60625;51.212;5.952;2023-11-22T21:13:54;6.01;81.64
72591;SHT31;60625;51.212;5.952;2023-11-22T21:18:59;6.06;81.50
72591;SHT31;60625;51.212;5.952;2023-11-22T21:24:00;6.12;81.49
72591;SHT31;60625;51.212;5.952;2023-11-22T21:29:00;6.16;81.43
72591;SHT31;60625;51.212;5.952;2023-11-22T21:34:00;6.15;81.32
72591;SHT31;60625;51.212;5.952;2023-11-22T21:39:06;6.14;81.31
72591;SHT31;60625;51.212;5.952;2023-11-22T21:44:12;6.14;81.30
72591;SHT31;60625;51.212;5.952;2023-11-22T21:49:13;6.16;81.29
72591;SHT31;60625;51.212;5.952;2023-11-22T21:54:13;6.19;81.15
72591;SHT31;60625;51.212;5.952;2023-11-22T21:59:13;6.25;80.89
72591;SHT31;60625;51.212;5.952;2023-11-22T22:04:14;6.31;80.82
72591;SHT31;60625;51.212;5.952;2023-11-22T22:09:15;6.37;80.61
72591;SHT31;60625;51.212;5.952;2023-11-22T22:14:16;6.43;80.68
72591;SHT31;60625;51.212;5.952;2023-11-22T22:19:16;6.48;80.64
72591;SHT31;60625;51.212;5.952;2023-11-22T22:24:17;6.53;80.70
72591;SHT31;60625;51.212;5.952;2023-11-22T22:29:17;6.57;80.61
72591;SHT31;60625;51.212;5.952;2023-11-22T22:34:18;6.61;80.61
72591;SHT31;60625;51.212;5.952;2023-11-22T22:39:19;6.63;80.63
72591;SHT31;60625;51.212;5.952;2023-11-22T22:44:20;6.67;80.64
72591;SHT31;60625;51.212;5.952;2023-11-22T22:49:21;6.70;80.76
72591;SHT31;60625;51.212;5.952;2023-11-22T22:54:21;6.72;81.00
72591;SHT31;60625;51.212;5.952;2023-11-22T22:59:22;6.74;81.05
72591;SHT31;60625;51.212;5.952;2023-11-22T23:04:22;6.76;81.28
72591;SHT31;60625;51.212;5.952;2023-11-22T23:09:22;6.78;81.42
72591;SHT31;60625;51.212;5.952;2023-11-22T23:14:24;6.79;81.53
72591;SHT31;60625;51.212;5.952;2023-11-22T23:19:25;6.82;81.70
72591;SHT31;60625;51.212;5.952;2023-11-22T23:24:26;6.85;81.82
72591;SHT31;60625;51.212;5.952;2023-11-22T23:29:26;6.87;82.10
72591;SHT31;60625;51.212;5.952;2023-11-22T23:34:27;6.89;82.68
72591;SHT31;60625;51.212;5.952;2023-11-22T23:39:28;6.89;83.78
72591;SHT31;60625;51.212;5.952;2023-11-22T23:44:29;6.88;84.34
72591;SHT31;60625;51.212;5.952;2023-11-22T23:49:30;6.88;84.61
72591;SHT31;60625;51.212;5.952;2023-11-22T23:54:30;6.90;84.52
72591;SHT31;60625;51.212;5.952;2023-11-22T23:59:32;6.94;84.62
